createdAt,value
2022-12-23T00:00:44.196Z,3.93
2022-12-23T00:03:11.545Z,3.53
2022-12-23T00:05:39.541Z,9.53
2022-12-23T00:08:07.454Z,8.03
2022-12-23T00:10:38.680Z,5.23
2022-12-23T00:13:23.839Z,4.60
2022-12-23T00:15:50.709Z,3.33
2022-12-23T00:18:17.553Z,4.50
2022-12-23T00:20:44.332Z,3.53
2022-12-23T00:23:11.182Z,8.00
2022-12-23T00:25:42.433Z,5.73
2022-12-23T00:28:21.470Z,8.20
2022-12-23T00:30:53.511Z,4.27
2022-12-23T00:33:23.270Z,2.63
2022-12-23T00:35:50.818Z,4.73
2022-12-23T00:38:38.805Z,7.23
2022-12-23T00:41:29.386Z,2.63
2022-12-23T00:43:57.121Z,3.30
2022-12-23T00:46:25.046Z,3.77
2022-12-23T00:49:10.609Z,2.50
2022-12-23T00:51:37.752Z,5.10
2022-12-23T00:54:05.153Z,5.53
2022-12-23T00:56:32.774Z,5.03
2022-12-23T00:59:00.124Z,5.20
2022-12-23T01:01:45.605Z,2.83
2022-12-23T01:04:35.740Z,4.90
2022-12-23T01:07:03.731Z,4.20
2022-12-23T01:09:31.379Z,4.03
2022-12-23T01:11:58.455Z,3.80
2022-12-23T01:14:26.299Z,2.87
2022-12-23T01:16:53.293Z,3.70
2022-12-23T01:19:20.407Z,2.20
2022-12-23T01:21:47.191Z,3.40
2022-12-23T01:24:13.969Z,2.60
2022-12-23T01:26:40.622Z,2.37
2022-12-23T01:29:07.377Z,2.60
2022-12-23T01:31:34.211Z,4.60
2022-12-23T01:34:00.923Z,5.73
2022-12-23T01:36:27.659Z,3.10
2022-12-23T01:38:56.429Z,1.53
2022-12-23T01:41:45.378Z,1.97
2022-12-23T01:44:49.829Z,2.60
2022-12-23T01:47:39.924Z,2.30
2022-12-23T01:50:24.434Z,1.93
2022-12-23T01:53:07.957Z,1.93
2022-12-23T01:56:00.039Z,2.47
2022-12-23T01:58:34.715Z,2.60
2022-12-23T02:01:20.667Z,2.20
2022-12-23T02:03:49.242Z,3.30
2022-12-23T02:07:00.281Z,3.20
2022-12-23T02:09:30.548Z,3.10
2022-12-23T02:12:26.044Z,3.20
2022-12-23T02:15:39.878Z,3.63
2022-12-23T02:18:40.053Z,5.90
2022-12-23T02:21:31.478Z,2.20
2022-12-23T02:24:22.786Z,1.80
2022-12-23T02:27:09.712Z,1.93
2022-12-23T02:30:36.957Z,2.97
2022-12-23T02:33:15.397Z,3.50
2022-12-23T02:36:06.853Z,3.00
2022-12-23T02:38:42.980Z,4.63
2022-12-23T02:41:16.191Z,6.93
2022-12-23T02:43:50.225Z,2.50
2022-12-23T02:46:58.314Z,4.13
2022-12-23T02:49:38.683Z,3.00
2022-12-23T02:52:12.579Z,4.70
2022-12-23T02:54:45.340Z,4.60
2022-12-23T02:57:14.456Z,2.60
2022-12-23T02:59:46.405Z,5.13
2022-12-23T03:02:13.404Z,3.67
2022-12-23T03:04:42.192Z,3.13
2022-12-23T03:07:23.568Z,6.50
2022-12-23T03:10:02.226Z,8.43
2022-12-23T03:12:56.266Z,4.73
2022-12-23T03:15:28.806Z,3.10
2022-12-23T03:18:12.376Z,5.30
2022-12-23T03:21:03.571Z,5.23
2022-12-23T03:23:37.053Z,5.17
2022-12-23T03:26:16.917Z,6.60
2022-12-23T03:29:01.926Z,7.47
2022-12-23T03:31:31.463Z,3.90
2022-12-23T03:34:05.542Z,6.10
2022-12-23T03:36:36.687Z,3.93
2022-12-23T03:39:07.818Z,3.80
2022-12-23T03:41:41.281Z,6.37
2022-12-23T03:44:14.948Z,7.20
2022-12-23T03:46:46.575Z,4.30
2022-12-23T03:49:24.217Z,5.23
2022-12-23T03:51:57.486Z,3.80
2022-12-23T03:54:30.203Z,3.43
2022-12-23T03:57:04.117Z,7.50
2022-12-23T03:59:38.694Z,4.87
2022-12-23T04:02:08.178Z,3.30
2022-12-23T04:04:53.805Z,7.33
2022-12-23T04:07:27.665Z,3.20
2022-12-23T04:09:55.268Z,7.13
2022-12-23T04:12:25.806Z,4.10
2022-12-23T04:14:52.755Z,1.97
2022-12-23T04:17:20.433Z,5.63
2022-12-23T04:19:47.755Z,2.23
2022-12-23T04:22:15.884Z,3.53
2022-12-23T04:24:43.445Z,4.40
2022-12-23T04:27:13.539Z,2.17
2022-12-23T04:29:40.286Z,3.30
2022-12-23T04:32:08.231Z,11.27
2022-12-23T04:34:35.198Z,2.30
2022-12-23T04:37:02.179Z,2.93
2022-12-23T04:39:29.155Z,2.43
2022-12-23T04:41:55.976Z,4.40
2022-12-23T04:44:22.697Z,5.37
2022-12-23T04:46:49.541Z,1.97
2022-12-23T04:49:16.368Z,3.50
2022-12-23T04:51:43.167Z,2.00
2022-12-23T04:54:09.895Z,4.50
2022-12-23T04:56:36.616Z,2.50
2022-12-23T04:59:04.367Z,8.20
2022-12-23T05:01:31.302Z,5.70
2022-12-23T05:03:58.076Z,3.67
2022-12-23T05:06:24.908Z,2.30
2022-12-23T05:08:51.701Z,6.20
2022-12-23T05:11:18.637Z,3.53
2022-12-23T05:13:45.468Z,3.23
2022-12-23T05:16:12.393Z,3.73
2022-12-23T05:18:39.103Z,2.40
2022-12-23T05:21:05.865Z,2.27
2022-12-23T05:23:32.586Z,4.57
2022-12-23T05:25:59.385Z,4.27
2022-12-23T05:28:26.280Z,4.93
2022-12-23T05:31:04.529Z,6.37
2022-12-23T05:33:32.189Z,1.87
2022-12-23T05:35:59.534Z,4.13
2022-12-23T05:38:27.143Z,2.77
2022-12-23T05:40:54.296Z,5.77
2022-12-23T05:43:21.582Z,3.60
2022-12-23T05:45:49.685Z,4.53
2022-12-23T05:48:16.656Z,4.70
2022-12-23T05:50:43.385Z,7.30
2022-12-23T05:53:10.254Z,3.20
2022-12-23T05:55:37.084Z,5.20
2022-12-23T05:58:03.836Z,3.80
2022-12-23T06:00:30.610Z,5.47
2022-12-23T06:02:57.589Z,6.57
2022-12-23T06:05:24.466Z,5.53
2022-12-23T06:07:51.439Z,4.30
2022-12-23T06:10:18.343Z,6.97
2022-12-23T06:12:45.187Z,2.10
2022-12-23T06:15:12.484Z,4.30
2022-12-23T06:17:39.174Z,3.07
2022-12-23T06:20:06.694Z,4.60
2022-12-23T06:22:33.546Z,5.27
2022-12-23T06:25:00.209Z,4.13
2022-12-23T06:27:26.982Z,5.23
2022-12-23T06:29:53.699Z,3.50
2022-12-23T06:32:20.720Z,3.97
2022-12-23T06:34:47.407Z,9.67
2022-12-23T06:37:14.198Z,2.77
2022-12-23T06:39:41.077Z,3.27
2022-12-23T06:42:07.744Z,4.57
2022-12-23T06:44:34.439Z,10.83
2022-12-23T06:47:01.109Z,4.83
2022-12-23T06:49:28.061Z,3.07
2022-12-23T06:51:54.940Z,5.17
2022-12-23T06:54:21.726Z,9.67
2022-12-23T06:56:48.462Z,4.77
2022-12-23T06:59:15.303Z,5.60
2022-12-23T07:01:42.198Z,6.93
2022-12-23T07:04:09.024Z,5.20
2022-12-23T07:06:35.935Z,4.97
2022-12-23T07:09:02.786Z,4.00
2022-12-23T07:11:29.993Z,4.10
2022-12-23T07:13:57.516Z,7.87
2022-12-23T07:16:24.417Z,5.60
2022-12-23T07:18:51.154Z,7.20
2022-12-23T07:21:26.464Z,3.90
2022-12-23T07:23:55.288Z,8.67
2022-12-23T07:26:22.029Z,6.30
2022-12-23T07:28:49.115Z,4.17
2022-12-23T07:31:16.316Z,5.67
2022-12-23T07:33:43.324Z,7.77
2022-12-23T07:36:10.093Z,8.37
2022-12-23T07:38:37.093Z,8.20
2022-12-23T07:41:04.013Z,4.10
2022-12-23T07:43:30.837Z,4.87
2022-12-23T07:46:00.242Z,4.23
2022-12-23T07:48:27.277Z,8.10
2022-12-23T07:50:59.580Z,4.30
2022-12-23T07:53:26.286Z,6.93
2022-12-23T07:55:56.604Z,4.27
2022-12-23T07:58:23.968Z,6.63
2022-12-23T08:00:50.734Z,5.60
2022-12-23T08:03:17.857Z,5.90
2022-12-23T08:05:44.637Z,3.20
2022-12-23T08:08:12.606Z,6.50
2022-12-23T08:10:47.790Z,4.40
2022-12-23T08:13:15.162Z,3.30
2022-12-23T08:15:41.893Z,5.03
2022-12-23T08:18:08.566Z,5.20
2022-12-23T08:20:35.236Z,4.10
2022-12-23T08:23:01.956Z,3.60
2022-12-23T08:25:28.653Z,5.20
2022-12-23T08:27:55.385Z,4.87
2022-12-23T08:30:22.204Z,8.57
2022-12-23T08:32:48.904Z,4.33
2022-12-23T08:35:16.893Z,7.17
2022-12-23T08:37:43.602Z,6.63
2022-12-23T08:40:11.603Z,5.63
2022-12-23T08:42:38.338Z,4.50
2022-12-23T08:45:05.347Z,5.93
2022-12-23T08:47:32.083Z,7.20
2022-12-23T08:49:58.831Z,4.90
2022-12-23T08:52:25.563Z,3.80
2022-12-23T08:54:52.321Z,4.10
2022-12-23T08:57:19.177Z,3.60
2022-12-23T08:59:47.016Z,4.63
2022-12-23T09:02:14.044Z,3.20
2022-12-23T09:04:41.032Z,5.43
2022-12-23T09:07:07.753Z,3.20
2022-12-23T09:09:34.563Z,3.37
2022-12-23T09:12:01.248Z,2.67
2022-12-23T09:14:28.073Z,5.93
2022-12-23T09:16:54.849Z,2.87
2022-12-23T09:19:21.729Z,5.03
2022-12-23T09:21:48.570Z,5.30
2022-12-23T09:24:15.311Z,3.20
2022-12-23T09:26:41.993Z,3.40
2022-12-23T09:29:08.664Z,2.93
2022-12-23T09:31:37.731Z,1.83
2022-12-23T09:34:05.307Z,4.80
2022-12-23T09:36:31.972Z,4.50
2022-12-23T09:38:59.422Z,2.43
2022-12-23T09:41:46.371Z,3.73
2022-12-23T09:44:33.489Z,3.43
2022-12-23T09:47:04.433Z,2.90
2022-12-23T09:49:32.323Z,8.00
2022-12-23T09:52:03.628Z,3.10
2022-12-23T09:54:41.946Z,3.03
2022-12-23T09:57:17.421Z,3.90
2022-12-23T09:59:44.056Z,4.07
2022-12-23T10:02:13.628Z,4.80
2022-12-23T10:04:55.451Z,3.80
2022-12-23T10:07:34.134Z,3.00
2022-12-23T10:10:07.718Z,4.77
2022-12-23T10:12:42.127Z,4.63
2022-12-23T10:15:21.546Z,4.10
2022-12-23T10:17:52.628Z,3.53
2022-12-23T10:20:29.997Z,13.13
2022-12-23T10:22:58.100Z,7.57
2022-12-23T10:25:41.237Z,2.80
2022-12-23T10:28:10.802Z,7.20
2022-12-23T10:31:05.793Z,6.50
2022-12-23T10:33:46.856Z,5.40
2022-12-23T10:36:22.787Z,6.10
2022-12-23T10:38:52.342Z,7.50
2022-12-23T10:41:55.572Z,12.00
2022-12-23T10:44:32.020Z,31.23
2022-12-23T10:47:08.141Z,3.40
2022-12-23T10:49:56.111Z,3.33
2022-12-23T10:52:27.597Z,5.60
2022-12-23T10:54:54.451Z,10.50
2022-12-23T10:57:21.214Z,3.40
2022-12-23T10:59:48.091Z,3.20
2022-12-23T11:02:14.922Z,3.87
2022-12-23T11:04:49.764Z,3.07
2022-12-23T11:10:17.930Z,3.57
2022-12-23T11:12:53.502Z,4.13
2022-12-23T11:15:29.216Z,7.63
2022-12-23T11:18:02.004Z,7.63
2022-12-23T11:20:31.968Z,3.83
2022-12-23T11:23:04.331Z,3.03
2022-12-23T11:25:40.466Z,5.93
2022-12-23T11:28:10.823Z,6.10
2022-12-23T11:30:56.558Z,4.23
2022-12-23T11:33:25.469Z,4.30
2022-12-23T11:36:04.864Z,6.10
2022-12-23T11:38:32.742Z,4.27
2022-12-23T11:40:59.998Z,3.87
2022-12-23T11:43:28.264Z,5.73
2022-12-23T11:46:25.596Z,4.30
2022-12-23T11:49:26.310Z,4.80
2022-12-23T11:52:06.163Z,3.43
2022-12-23T11:54:34.584Z,3.13
2022-12-23T11:57:04.354Z,3.90
2022-12-23T11:59:38.792Z,4.30
2022-12-23T12:02:26.751Z,5.20
2022-12-23T12:04:59.883Z,3.93
2022-12-23T12:07:27.254Z,3.63
2022-12-23T12:09:57.797Z,5.47
2022-12-23T12:12:24.784Z,8.20
2022-12-23T12:14:54.531Z,3.43
2022-12-23T12:17:23.421Z,5.87
2022-12-23T12:19:59.363Z,5.93
2022-12-23T12:22:37.181Z,3.93
2022-12-23T12:25:23.559Z,3.60
2022-12-23T12:27:59.739Z,4.27
2022-12-23T12:30:37.352Z,4.30
2022-12-23T12:33:32.519Z,7.43
2022-12-23T12:36:16.077Z,5.27
2022-12-23T12:38:48.541Z,3.83
2022-12-23T12:41:43.046Z,4.37
2022-12-23T12:44:33.010Z,4.07
2022-12-23T12:47:52.667Z,2.90
2022-12-23T12:50:24.620Z,3.13
2022-12-23T12:52:53.990Z,3.93
2022-12-23T12:55:29.360Z,3.53
2022-12-23T12:57:56.121Z,3.50
2022-12-23T13:00:24.291Z,5.80
2022-12-23T13:03:09.038Z,2.57
2022-12-23T13:05:54.871Z,4.80
2022-12-23T13:08:27.580Z,3.20
2022-12-23T13:11:10.803Z,2.57
2022-12-23T13:13:55.402Z,3.20
2022-12-23T13:16:36.506Z,3.67
2022-12-23T13:19:23.284Z,4.53
2022-12-23T13:22:03.048Z,3.23
2022-12-23T13:24:56.545Z,2.70
2022-12-23T13:27:50.409Z,3.23
2022-12-23T13:30:20.215Z,6.07
2022-12-23T13:33:28.200Z,3.20
2022-12-23T13:36:14.511Z,4.80
2022-12-23T13:38:44.112Z,2.83
2022-12-23T13:41:29.414Z,4.43
2022-12-23T13:43:57.591Z,3.60
2022-12-23T13:46:51.307Z,3.03
2022-12-23T13:49:36.767Z,5.40
2022-12-23T13:52:21.251Z,3.33
2022-12-23T13:55:06.916Z,3.03
2022-12-23T13:57:53.070Z,3.23
2022-12-23T14:00:19.908Z,4.90
2022-12-23T14:03:00.163Z,2.60
2022-12-23T14:05:43.816Z,3.90
2022-12-23T14:08:19.340Z,4.13
2022-12-23T14:10:56.310Z,3.20
2022-12-23T14:13:43.896Z,3.37
2022-12-23T14:16:48.075Z,5.83
2022-12-23T14:20:13.229Z,4.73
2022-12-23T14:22:54.886Z,3.00
2022-12-23T14:25:40.302Z,2.73
2022-12-23T14:28:34.084Z,3.40
2022-12-23T14:31:05.311Z,3.73
2022-12-23T14:33:36.789Z,5.10
2022-12-23T14:36:24.161Z,4.03
2022-12-23T14:39:12.813Z,5.03
2022-12-23T14:41:49.907Z,3.47
2022-12-23T14:44:45.845Z,4.30
2022-12-23T14:47:35.050Z,4.83
2022-12-23T14:50:32.529Z,4.87
2022-12-23T14:53:01.141Z,4.37
2022-12-23T14:55:30.878Z,4.80
2022-12-23T14:58:21.094Z,4.63
2022-12-23T15:00:50.924Z,5.70
2022-12-23T15:03:19.936Z,5.40
2022-12-23T15:05:46.962Z,4.67
2022-12-23T15:08:26.108Z,5.03
2022-12-23T15:10:54.113Z,8.73
2022-12-23T15:13:21.069Z,6.10
2022-12-23T15:15:58.946Z,6.43
2022-12-23T15:18:28.513Z,9.03
2022-12-23T15:21:03.981Z,5.90
2022-12-23T15:23:30.722Z,6.00
2022-12-23T15:26:00.076Z,6.43
2022-12-23T15:28:38.605Z,5.17
2022-12-23T15:31:06.716Z,5.63
2022-12-23T15:36:32.315Z,10.20
2022-12-23T15:39:00.838Z,18.27
2022-12-23T15:41:28.163Z,13.50
2022-12-23T15:43:58.939Z,10.20
2022-12-23T15:46:30.096Z,12.67
2022-12-23T15:48:57.424Z,14.30
2022-12-23T15:52:06.301Z,15.50
2022-12-23T15:54:53.661Z,13.93
2022-12-23T15:57:24.105Z,9.53
2022-12-23T15:59:51.049Z,15.37
2022-12-23T16:05:38.810Z,20.70
2022-12-23T16:08:32.291Z,40.20
2022-12-23T16:11:19.865Z,5.90
2022-12-23T16:13:58.368Z,3.67
2022-12-23T16:16:42.342Z,2.20
2022-12-23T16:19:47.514Z,2.80
2022-12-23T16:22:20.038Z,1.93
2022-12-23T16:24:57.289Z,2.60
2022-12-23T16:27:35.305Z,1.80
2022-12-23T16:30:09.492Z,1.20
2022-12-23T16:32:49.454Z,3.10
2022-12-23T16:35:38.996Z,2.10
2022-12-23T16:38:13.635Z,1.90
2022-12-23T16:40:40.883Z,1.97
2022-12-23T16:43:07.675Z,4.03
2022-12-23T16:45:36.258Z,4.27
2022-12-23T16:48:27.253Z,1.93
2022-12-23T16:50:54.210Z,3.17
2022-12-23T16:53:21.433Z,4.53
2022-12-23T16:55:55.335Z,3.40
2022-12-23T16:58:27.009Z,6.27
2022-12-23T17:00:53.756Z,5.50
2022-12-23T17:03:20.710Z,4.00
2022-12-23T17:05:47.933Z,5.30
2022-12-23T17:08:14.896Z,4.30
2022-12-23T17:10:44.468Z,5.80
2022-12-23T17:13:17.116Z,3.07
2022-12-23T17:15:43.910Z,3.23
2022-12-23T17:18:15.887Z,6.10
2022-12-23T17:20:45.182Z,10.70
2022-12-23T17:23:32.458Z,9.60
2022-12-23T17:25:59.208Z,7.53
2022-12-23T17:28:31.088Z,10.47
2022-12-23T17:30:58.874Z,11.50
2022-12-23T17:33:29.362Z,12.10
2022-12-23T17:35:57.130Z,9.23
2022-12-23T17:38:24.019Z,11.37
2022-12-23T17:40:51.208Z,9.13
2022-12-23T17:43:18.535Z,6.27
2022-12-23T17:45:46.992Z,11.00
2022-12-23T17:48:20.111Z,7.30
2022-12-23T17:50:48.881Z,12.83
2022-12-23T17:53:20.144Z,8.40
2022-12-23T17:55:47.211Z,12.43
2022-12-23T17:58:14.396Z,7.60
2022-12-23T18:00:41.350Z,16.97
2022-12-23T18:03:22.461Z,8.73
2022-12-23T18:05:52.962Z,17.70
2022-12-23T18:08:24.187Z,10.07
2022-12-23T18:10:51.000Z,9.60
2022-12-23T18:13:19.749Z,18.10
2022-12-23T18:15:47.818Z,9.30
2022-12-23T18:18:16.767Z,18.40
2022-12-23T18:20:50.922Z,17.33
2022-12-23T18:23:26.205Z,18.00
2022-12-23T18:25:53.755Z,11.33
2022-12-23T18:28:20.468Z,13.53
2022-12-23T18:30:47.441Z,11.47
2022-12-23T18:33:14.482Z,11.70
2022-12-23T18:35:49.331Z,11.03
2022-12-23T18:38:17.091Z,18.70
2022-12-23T18:40:44.830Z,15.07
2022-12-23T18:43:23.571Z,14.57
2022-12-23T18:45:53.481Z,10.50
2022-12-23T18:48:21.667Z,17.03
2022-12-23T18:50:48.562Z,12.80
2022-12-23T18:53:24.581Z,18.27
2022-12-23T18:55:53.206Z,15.87
2022-12-23T18:58:20.840Z,15.20
2022-12-23T19:00:49.900Z,16.70
2022-12-23T19:03:28.981Z,16.83
2022-12-23T19:05:57.004Z,23.07
2022-12-23T19:08:27.126Z,13.67
2022-12-23T19:10:55.836Z,12.20
2022-12-23T19:13:23.349Z,19.57
2022-12-23T19:15:50.363Z,10.03
2022-12-23T19:18:19.951Z,7.40
2022-12-23T19:20:47.946Z,12.13
2022-12-23T19:23:15.562Z,16.37
2022-12-23T19:25:50.726Z,20.20
2022-12-23T19:28:21.623Z,14.37
2022-12-23T19:30:48.768Z,16.80
2022-12-23T19:33:15.727Z,20.73
2022-12-23T19:35:43.902Z,14.27
2022-12-23T19:38:12.257Z,15.97
2022-12-23T19:40:39.592Z,12.10
2022-12-23T19:43:06.469Z,10.10
2022-12-23T19:45:33.380Z,10.63
2022-12-23T19:48:00.056Z,9.43
2022-12-23T19:50:27.281Z,8.23
2022-12-23T19:52:56.204Z,10.20
2022-12-23T19:55:23.592Z,17.77
2022-12-23T19:57:50.322Z,10.53
2022-12-23T20:00:17.233Z,15.00
2022-12-23T20:02:44.189Z,14.03
2022-12-23T20:05:11.081Z,13.43
2022-12-23T20:07:38.149Z,20.30
2022-12-23T20:10:06.318Z,11.20
2022-12-23T20:12:33.184Z,19.20
2022-12-23T20:15:00.084Z,8.50
2022-12-23T20:17:26.813Z,18.10
2022-12-23T20:19:53.872Z,16.70
2022-12-23T20:22:20.545Z,11.50
2022-12-23T20:24:47.438Z,12.83
2022-12-23T20:27:16.091Z,15.53
2022-12-23T20:29:43.371Z,19.77
2022-12-23T20:32:10.577Z,16.53
2022-12-23T20:34:39.864Z,15.80
2022-12-23T20:37:07.559Z,15.50
2022-12-23T20:39:34.647Z,18.57
2022-12-23T20:42:01.382Z,18.03
2022-12-23T20:44:36.900Z,15.47
2022-12-23T20:47:06.158Z,14.93
2022-12-23T20:49:33.420Z,19.27
2022-12-23T20:52:00.176Z,25.00
2022-12-23T20:54:32.761Z,17.47
2022-12-23T20:57:01.916Z,12.03
2022-12-23T20:59:28.749Z,16.03
2022-12-23T21:01:55.683Z,19.73
2022-12-23T21:04:22.747Z,12.13
2022-12-23T21:06:49.707Z,17.97
2022-12-23T21:09:17.059Z,11.30
2022-12-23T21:11:46.262Z,15.47
2022-12-23T21:14:13.938Z,11.67
2022-12-23T21:16:41.243Z,16.20
2022-12-23T21:19:09.651Z,10.60
2022-12-23T21:21:36.434Z,14.97
2022-12-23T21:24:04.818Z,11.03
2022-12-23T21:26:33.514Z,7.60
2022-12-23T21:29:01.769Z,17.27
2022-12-23T21:31:30.874Z,9.87
2022-12-23T21:33:58.221Z,14.20
2022-12-23T21:36:27.655Z,13.30
2022-12-23T21:38:54.931Z,9.17
2022-12-23T21:41:24.451Z,11.70
2022-12-23T21:43:51.906Z,9.40
2022-12-23T21:46:21.046Z,16.67
2022-12-23T21:48:49.134Z,9.10
2022-12-23T21:51:25.027Z,18.20
2022-12-23T21:53:54.172Z,15.03
2022-12-23T21:56:27.478Z,11.30
2022-12-23T21:59:02.109Z,18.70
2022-12-23T22:01:29.939Z,8.33
2022-12-23T22:03:57.244Z,23.13
2022-12-23T22:06:37.280Z,23.37
2022-12-23T22:09:06.110Z,10.43
2022-12-23T22:11:35.165Z,9.50
2022-12-23T22:14:03.389Z,11.40
2022-12-23T22:16:31.356Z,16.50
2022-12-23T22:18:59.437Z,8.57
2022-12-23T22:21:30.142Z,16.87
2022-12-23T22:23:57.007Z,18.30
2022-12-23T22:26:27.122Z,17.87
2022-12-23T22:28:59.791Z,16.00
2022-12-23T22:31:43.125Z,15.73
2022-12-23T22:34:14.579Z,13.03
2022-12-23T22:36:41.639Z,13.50
2022-12-23T22:39:10.810Z,14.17
2022-12-23T22:41:39.759Z,10.23
2022-12-23T22:44:07.332Z,16.23
2022-12-23T22:46:34.199Z,14.90
2022-12-23T22:49:01.059Z,13.80
2022-12-23T22:51:30.084Z,13.87
2022-12-23T22:53:57.806Z,16.37
2022-12-23T22:56:26.298Z,17.20
2022-12-23T22:58:53.952Z,14.10
2022-12-23T23:01:27.396Z,9.70
2022-12-23T23:03:59.033Z,18.23
2022-12-23T23:06:44.084Z,15.00
2022-12-23T23:09:14.993Z,15.07
2022-12-23T23:11:43.282Z,14.60
2022-12-23T23:14:11.123Z,15.30
2022-12-23T23:16:37.942Z,13.17
2022-12-23T23:19:05.622Z,25.53
2022-12-23T23:21:32.712Z,11.37
2022-12-23T23:23:59.525Z,15.40
2022-12-23T23:26:27.492Z,17.47
2022-12-23T23:28:55.607Z,21.07
2022-12-23T23:34:09.630Z,20.70
2022-12-23T23:36:36.436Z,23.53
2022-12-23T23:39:03.356Z,17.40
2022-12-23T23:41:30.180Z,15.20
2022-12-23T23:43:56.900Z,17.80
2022-12-23T23:46:23.723Z,27.93
2022-12-23T23:48:50.510Z,20.83
2022-12-23T23:51:17.450Z,14.33
2022-12-23T23:53:44.281Z,21.03
2022-12-23T23:56:11.357Z,17.63
2022-12-23T23:58:38.433Z,21.10
